地図

経路データ

SID SEASON NUMBER BASIN SUBBASIN NAME ISO_TIME NATURE LAT LON WMO_WIND WMO_PRES WMO_AGENCY TRACK_TYPE DIST2LAND LANDFALL IFLAG USA_AGENCY USA_ATCF_ID USA_LAT USA_LON USA_RECORD USA_STATUS USA_WIND USA_PRES USA_SSHS USA_R34_NE USA_R34_SE USA_R34_SW USA_R34_NW USA_R50_NE USA_R50_SE USA_R50_SW USA_R50_NW USA_R64_NE USA_R64_SE USA_R64_SW USA_R64_NW USA_POCI USA_ROCI USA_RMW USA_EYE TOKYO_LAT TOKYO_LON TOKYO_GRADE TOKYO_WIND TOKYO_PRES TOKYO_R50_DIR TOKYO_R50_LONG TOKYO_R50_SHORT TOKYO_R30_DIR TOKYO_R30_LONG TOKYO_R30_SHORT TOKYO_LAND CMA_LAT CMA_LON CMA_CAT CMA_WIND CMA_PRES HKO_LAT HKO_LON HKO_CAT HKO_WIND HKO_PRES NEWDELHI_LAT NEWDELHI_LON NEWDELHI_GRADE NEWDELHI_WIND NEWDELHI_PRES NEWDELHI_CI NEWDELHI_DP NEWDELHI_POCI REUNION_LAT REUNION_LON REUNION_TYPE REUNION_WIND REUNION_PRES REUNION_TNUM REUNION_CI REUNION_RMW REUNION_R34_NE REUNION_R34_SE REUNION_R34_SW REUNION_R34_NW REUNION_R50_NE REUNION_R50_SE REUNION_R50_SW REUNION_R50_NW REUNION_R64_NE REUNION_R64_SE REUNION_R64_SW REUNION_R64_NW BOM_LAT BOM_LON BOM_TYPE BOM_WIND BOM_PRES BOM_TNUM BOM_CI BOM_RMW BOM_R34_NE BOM_R34_SE BOM_R34_SW BOM_R34_NW BOM_R50_NE BOM_R50_SE BOM_R50_SW BOM_R50_NW BOM_R64_NE BOM_R64_SE BOM_R64_SW BOM_R64_NW BOM_ROCI BOM_POCI BOM_EYE BOM_POS_METHOD BOM_PRES_METHOD NADI_LAT NADI_LON NADI_CAT NADI_WIND NADI_PRES WELLINGTON_LAT WELLINGTON_LON WELLINGTON_WIND WELLINGTON_PRES DS824_LAT DS824_LON DS824_STAGE DS824_WIND DS824_PRES TD9636_LAT TD9636_LON TD9636_STAGE TD9636_WIND TD9636_PRES TD9635_LAT TD9635_LON TD9635_WIND TD9635_PRES TD9635_ROCI NEUMANN_LAT NEUMANN_LON NEUMANN_CLASS NEUMANN_WIND NEUMANN_PRES MLC_LAT MLC_LON MLC_CLASS MLC_WIND MLC_PRES USA_GUST BOM_GUST BOM_GUST_PER REUNION_GUST REUNION_GUST_PER USA_SEAHGT USA_SEARAD_NE USA_SEARAD_SE USA_SEARAD_SW USA_SEARAD_NW STORM_SPEED STORM_DIR
1938236N18117 1938 42 WP MM NOT_NAMED 1938-08-24 10:00:00 NR 18.0000 116.500 main 398 398 __________O___ -1 18.0000 116.500 4 7 271
1938236N18117 1938 42 WP MM NOT_NAMED 1938-08-24 12:00:00 NR 18.0042 116.246 main 427 427 __________P___ -1 18.0042 116.246 4 7 271
1938236N18117 1938 42 WP MM NOT_NAMED 1938-08-24 15:00:00 NR 18.0148 115.866 main 456 465 __________P___ -1 18.0148 115.866 4 7 273
1938236N18117 1938 42 WP MM NOT_NAMED 1938-08-24 18:00:00 NR 18.0375 115.490 main 494 462 __________P___ -1 18.0375 115.490 4 7 275
1938236N18117 1938 42 WP MM NOT_NAMED 1938-08-24 21:00:00 NR 18.0801 115.121 main 462 453 __________P___ -1 18.0801 115.121 4 7 278
1938236N18117 1938 42 WP MM NOT_NAMED 1938-08-24 22:00:00 NR 18.1000 115.000 main 453 433 __________O___ -1 18.1000 115.000 4 7 281
1938236N18117 1938 42 WP MM NOT_NAMED 1938-08-25 00:00:00 NR 18.1493 114.761 main 433 390 __________P___ -1 18.1493 114.761 4 7 284
1938236N18117 1938 42 WP MM NOT_NAMED 1938-08-25 03:00:00 NR 18.2424 114.409 main 390 352 __________P___ -1 18.2424 114.409 4 7 287
1938236N18117 1938 42 WP MM NOT_NAMED 1938-08-25 06:00:00 NR 18.3501 114.061 main 352 309 __________P___ -1 18.3501 114.061 4 7 289
1938236N18117 1938 42 WP MM NOT_NAMED 1938-08-25 09:00:00 NR 18.4629 113.715 main 309 299 __________P___ -1 18.4629 113.715 4 7 289
1938236N18117 1938 42 WP MM NOT_NAMED 1938-08-25 10:00:00 NR 18.5000 113.600 main 299 275 __________O___ -1 18.5000 113.600 4 7 287
1938236N18117 1938 42 WP MM NOT_NAMED 1938-08-25 12:00:00 NR 18.5610 113.382 main 275 242 __________P___ -1 18.5610 113.382 4 6 286
1938236N18117 1938 42 WP MM NOT_NAMED 1938-08-25 15:00:00 NR 18.6527 113.056 main 242 199 __________P___ -1 18.6527 113.056 4 7 287
1938236N18117 1938 42 WP MM NOT_NAMED 1938-08-25 18:00:00 NR 18.7501 112.714 main 199 157 __________P___ -1 18.7501 112.714 4 7 287
1938236N18117 1938 42 WP MM NOT_NAMED 1938-08-25 21:00:00 NR 18.8597 112.337 main 157 148 __________P___ -1 18.8597 112.337 4 8 287
1938236N18117 1938 42 WP MM NOT_NAMED 1938-08-25 22:00:00 NR 18.9000 112.200 main 148 115 __________O___ -1 18.9000 112.200 4 9 286
1938236N18117 1938 42 WP MM NOT_NAMED 1938-08-26 00:00:00 NR 18.9784 111.890 main 115 68 __________P___ -1 18.9784 111.890 4 10 285
1938236N18117 1938 42 WP MM NOT_NAMED 1938-08-26 03:00:00 NR 19.1082 111.388 main 68 22 __________P___ -1 19.1082 111.388 4 10 286
1938236N18117 1938 42 WP MM NOT_NAMED 1938-08-26 06:00:00 NR 19.2580 110.867 main 22 0 __________P___ -1 19.2580 110.867 4 10 289
1938236N18117 1938 42 WP MM NOT_NAMED 1938-08-26 09:00:00 NR 19.4343 110.361 main 0 0 __________P___ -1 19.4343 110.361 4 10 291
1938236N18117 1938 42 WP MM NOT_NAMED 1938-08-26 10:00:00 NR 19.5000 110.200 main 0 0 __________O___ -1 19.5000 110.200 4 10 295
1938236N18117 1938 42 WP MM NOT_NAMED 1938-08-26 12:00:00 NR 19.6410 109.890 main 0 0 __________P___ -1 19.6410 109.890 4 10 298
1938236N18117 1938 42 WP MM NOT_NAMED 1938-08-26 15:00:00 NR 19.8780 109.449 main 10 10 __________P___ -1 19.8780 109.449 4 9 302
1938236N18117 1938 42 WP MM NOT_NAMED 1938-08-26 18:00:00 NR 20.1370 109.049 main 45 54 __________P___ -1 20.1370 109.049 4 9 307
1938236N18117 1938 42 WP MM NOT_NAMED 1938-08-26 21:00:00 NR 20.4084 108.702 main 91 91 __________P___ -1 20.4084 108.702 4 8 311
1938236N18117 1938 42 WP MM NOT_NAMED 1938-08-26 22:00:00 NR 20.5000 108.600 main 107 91 __________O___ -1 20.5000 108.600 4 7 314
1938236N18117 1938 42 WP MM NOT_NAMED 1938-08-27 00:00:00 NR 20.6668 108.415 main 91 63 __________P___ -1 20.6668 108.415 4 7 318
1938236N18117 1938 42 WP MM NOT_NAMED 1938-08-27 03:00:00 NR 20.9233 108.189 main 63 24 __________P___ -1 20.9233 108.189 4 7 324
1938236N18117 1938 42 WP MM NOT_NAMED 1938-08-27 06:00:00 NR 21.1959 108.007 main 24 0 __________P___ -1 21.1959 108.007 4 7 331
1938236N18117 1938 42 WP MM NOT_NAMED 1938-08-27 09:00:00 NR 21.4936 107.850 main 0 0 __________P___ -1 21.4936 107.850 4 7 335
1938236N18117 1938 42 WP MM NOT_NAMED 1938-08-27 10:00:00 NR 21.6000 107.800 main 0 0 __________O___ -1 21.6000 107.800 4 7 338
1938236N18117 1938 42 WP MM NOT_NAMED 1938-08-27 12:00:00 NR 21.8247 107.700 main 0 0 __________P___ -1 21.8247 107.700 4 8 339
1938236N18117 1938 42 WP MM NOT_NAMED 1938-08-27 15:00:00 NR 22.1868 107.551 main 0 0 __________P___ -1 22.1868 107.551 4 8 340
1938236N18117 1938 42 WP MM NOT_NAMED 1938-08-27 18:00:00 NR 22.5707 107.401 main 0 0 __________P___ -1 22.5707 107.401 4 8 340
1938236N18117 1938 42 WP MM NOT_NAMED 1938-08-27 21:00:00 NR 22.9668 107.250 main 0 0 __________P___ -1 22.9668 107.250 4 8 341
1938236N18117 1938 42 WP MM NOT_NAMED 1938-08-27 22:00:00 NR 23.1000 107.200 main 0 __________O___ -1 23.1000 107.200 7 9 346

デジタル台風データ・検索

IBTrACS Databaseについて

本データベースは、米国NOAAが公開する1842年以降の世界の熱帯低気圧のベストトラックデータアーカイブInternational Best Track Archive for Climate Stewardship (IBTrACS)を、ウェブで閲覧しやすい形式に変換したものです。

最終更新日:2021-10-08